South Lee, Massachusetts
Current Conditions -  °F | °C
As of 3:54 AM on Friday 19 Dec 2014 (Local Time) from KPSF Reporting Station
Overcast Overcast  
Wind Chill: 16°   Ceiling: 3200
Heat Index: 28°   Visibility: 10mi
Dew Point: 21°   Wind: 16mph
Humidity: 75%   Direction: 290°WNW
Pressure: 29.88"   Gusts: 24mph
Location:  42.28°N, 73.28°W
Report Text: KPSF 190854Z AUTO 29014G21KT 10SM FEW022 OVC032 M02/M06 A2988 RMK AO2 SLP129 T10221061 51004
Loading
Personal Weather Stations






























Interactive Weather Map New forecast layout! Learn more

10-Day Weather Forecast

Advertisements
Track Severe Weather on mobile